createdAt,value
2018-12-16T00:00:34.533Z,86.20
2018-12-16T00:01:40.549Z,87.60
2018-12-16T00:02:46.339Z,86.97
2018-12-16T00:03:52.392Z,86.30
2018-12-16T00:04:58.124Z,95.55
2018-12-16T00:06:03.889Z,86.92
2018-12-16T00:07:07.749Z,89.58
2018-12-16T00:08:11.621Z,86.35
2018-12-16T00:09:15.534Z,93.50
2018-12-16T00:10:19.548Z,87.62
2018-12-16T00:11:23.322Z,85.67
2018-12-16T00:12:27.242Z,84.58
2018-12-16T00:13:30.990Z,82.90
2018-12-16T00:14:34.849Z,88.60
2018-12-16T00:15:38.699Z,86.30
2018-12-16T00:16:42.528Z,85.10
2018-12-16T00:17:46.290Z,92.62
2018-12-16T00:18:49.980Z,94.28
2018-12-16T00:19:53.775Z,79.97
2018-12-16T00:20:57.566Z,85.10
2018-12-16T00:22:01.351Z,85.70
2018-12-16T00:23:05.095Z,89.00
2018-12-16T00:24:08.958Z,83.30
2018-12-16T00:25:12.986Z,90.65
2018-12-16T00:26:16.771Z,90.50
2018-12-16T00:27:20.535Z,85.12
2018-12-16T00:28:24.353Z,96.60
2018-12-16T00:29:28.193Z,83.50
2018-12-16T00:30:31.968Z,79.12
2018-12-16T00:31:35.709Z,86.92
2018-12-16T00:32:39.433Z,84.75
2018-12-16T00:33:43.213Z,83.62
2018-12-16T00:34:46.922Z,79.50
2018-12-16T00:35:50.721Z,81.20
2018-12-16T00:36:54.491Z,77.55
2018-12-16T00:37:58.314Z,73.02
2018-12-16T00:39:02.099Z,81.87
2018-12-16T00:40:07.566Z,78.62
2018-12-16T00:41:11.383Z,79.67
2018-12-16T00:42:15.106Z,81.30
2018-12-16T00:43:18.868Z,88.87
2018-12-16T00:44:22.723Z,91.85
2018-12-16T00:45:26.504Z,76.00
2018-12-16T00:46:30.300Z,80.30
2018-12-16T00:47:34.112Z,78.15
2018-12-16T00:48:37.863Z,78.70
2018-12-16T00:49:41.574Z,72.47
2018-12-16T00:50:45.323Z,77.67
2018-12-16T00:51:49.073Z,77.00
2018-12-16T00:52:52.859Z,71.47
2018-12-16T00:53:56.620Z,79.35
2018-12-16T00:55:00.369Z,89.60
2018-12-16T00:56:04.238Z,76.22
2018-12-16T00:57:07.979Z,77.20
2018-12-16T00:58:11.669Z,76.57
2018-12-16T00:59:15.462Z,83.35
2018-12-16T01:00:19.210Z,80.15
2018-12-16T01:01:22.962Z,79.03
2018-12-16T01:02:42.046Z,79.47
2018-12-16T01:03:45.836Z,76.77
2018-12-16T01:04:49.823Z,64.50
2018-12-16T01:05:53.561Z,73.92
2018-12-16T01:06:57.326Z,80.17
2018-12-16T01:08:01.066Z,76.50
2018-12-16T01:09:06.638Z,72.75
2018-12-16T01:10:12.818Z,69.77
2018-12-16T01:11:16.526Z,72.45
2018-12-16T01:12:20.399Z,65.87
2018-12-16T01:13:24.132Z,74.95
2018-12-16T01:14:27.937Z,72.37
2018-12-16T01:15:31.648Z,68.05
2018-12-16T01:16:35.421Z,65.00
2018-12-16T01:17:39.191Z,68.62
2018-12-16T01:18:42.901Z,74.30
2018-12-16T01:19:46.641Z,66.02
2018-12-16T01:20:50.379Z,67.03
2018-12-16T01:21:54.134Z,66.60
2018-12-16T01:22:57.928Z,67.37
2018-12-16T01:24:01.641Z,65.12
2018-12-16T01:25:05.407Z,65.80
2018-12-16T01:26:09.147Z,60.38
2018-12-16T01:27:12.951Z,62.10
2018-12-16T01:28:16.692Z,72.80
2018-12-16T01:29:20.398Z,66.80
2018-12-16T01:30:24.158Z,65.03
2018-12-16T01:31:27.959Z,60.00
2018-12-16T01:32:31.739Z,63.60
2018-12-16T01:33:35.517Z,59.70
2018-12-16T01:34:39.306Z,62.53
2018-12-16T01:35:43.091Z,56.35
2018-12-16T01:36:46.809Z,52.80
2018-12-16T01:37:50.605Z,56.33
2018-12-16T01:38:54.423Z,57.27
2018-12-16T01:39:58.141Z,53.55
2018-12-16T01:41:01.882Z,56.23
2018-12-16T01:42:05.577Z,53.65
2018-12-16T01:43:09.454Z,66.82
2018-12-16T01:44:13.239Z,55.88
2018-12-16T01:45:16.968Z,57.43
2018-12-16T01:46:27.210Z,57.48
2018-12-16T01:47:30.995Z,56.45
2018-12-16T01:48:35.179Z,55.52
2018-12-16T01:49:38.916Z,58.85
2018-12-16T01:50:42.643Z,56.20
2018-12-16T01:51:46.542Z,53.78
2018-12-16T01:52:50.539Z,48.65
2018-12-16T01:53:54.320Z,54.33
2018-12-16T01:54:58.086Z,57.75
2018-12-16T01:56:01.860Z,51.50
2018-12-16T01:57:05.646Z,50.78
2018-12-16T01:58:09.387Z,48.00
2018-12-16T01:59:13.168Z,49.85
2018-12-16T02:00:17.029Z,48.45
2018-12-16T02:01:20.814Z,51.45
2018-12-16T02:02:24.576Z,54.75
2018-12-16T02:03:28.355Z,50.80
2018-12-16T02:04:32.143Z,50.12
2018-12-16T02:05:35.857Z,47.53
2018-12-16T02:06:39.543Z,47.93
2018-12-16T02:07:43.352Z,49.08
2018-12-16T02:08:47.081Z,46.15
2018-12-16T02:09:50.970Z,48.78
2018-12-16T02:10:54.826Z,47.38
2018-12-16T02:11:58.732Z,42.98
2018-12-16T02:13:02.570Z,50.78
2018-12-16T02:14:06.373Z,50.25
2018-12-16T02:15:10.126Z,49.00
2018-12-16T02:16:13.882Z,46.98
2018-12-16T02:17:17.667Z,46.53
2018-12-16T02:18:21.410Z,43.68
2018-12-16T02:19:25.142Z,44.38
2018-12-16T02:20:28.926Z,39.10
2018-12-16T02:21:32.721Z,39.78
2018-12-16T02:22:36.450Z,43.55
2018-12-16T02:23:40.198Z,42.05
2018-12-16T02:24:43.919Z,39.50
2018-12-16T02:25:47.804Z,44.27
2018-12-16T02:26:51.549Z,49.27
2018-12-16T02:27:55.288Z,44.33
2018-12-16T02:28:59.059Z,44.10
2018-12-16T02:30:02.754Z,38.10
2018-12-16T02:31:06.570Z,40.75
2018-12-16T02:32:10.318Z,40.73
2018-12-16T02:33:14.117Z,37.05
2018-12-16T02:34:17.850Z,34.13
2018-12-16T02:35:21.605Z,40.60
2018-12-16T02:36:25.386Z,40.03
2018-12-16T02:37:29.153Z,38.55
2018-12-16T02:38:32.898Z,33.00
2018-12-16T02:39:36.681Z,35.03
2018-12-16T02:40:40.453Z,35.90
2018-12-16T02:41:44.212Z,37.85
2018-12-16T02:42:48.194Z,34.25
2018-12-16T02:43:52.076Z,35.65
2018-12-16T02:44:55.827Z,36.95
2018-12-16T02:45:59.731Z,33.75
2018-12-16T02:47:03.582Z,32.80
2018-12-16T02:48:07.375Z,32.35
2018-12-16T02:49:11.097Z,33.25
2018-12-16T02:50:14.830Z,32.00
2018-12-16T02:51:18.571Z,32.83
2018-12-16T02:52:22.365Z,33.18
2018-12-16T02:53:26.209Z,35.48
2018-12-16T02:54:29.966Z,32.42
2018-12-16T02:55:33.699Z,33.25
2018-12-16T02:56:38.508Z,31.87
2018-12-16T02:57:42.252Z,31.10
2018-12-16T02:58:46.060Z,33.73
2018-12-16T02:59:49.815Z,35.35
2018-12-16T03:00:53.590Z,29.05
2018-12-16T03:01:57.374Z,32.70
2018-12-16T03:03:01.126Z,30.30
2018-12-16T03:04:04.793Z,33.18
2018-12-16T03:05:08.522Z,32.67
2018-12-16T03:06:12.238Z,31.87
2018-12-16T03:07:15.981Z,30.37
2018-12-16T03:08:19.838Z,33.05
2018-12-16T03:09:23.611Z,30.72
2018-12-16T03:10:27.412Z,34.43
2018-12-16T03:11:31.142Z,32.78
2018-12-16T03:12:34.841Z,33.98
2018-12-16T03:13:38.665Z,31.55
2018-12-16T03:14:42.542Z,41.23
2018-12-16T03:15:46.372Z,39.85
2018-12-16T03:16:50.093Z,37.25
2018-12-16T03:17:53.891Z,38.35
2018-12-16T03:18:57.658Z,35.15
2018-12-16T03:20:01.383Z,35.95
2018-12-16T03:21:05.095Z,35.15
2018-12-16T03:22:08.842Z,36.13
2018-12-16T03:23:12.730Z,56.33
2018-12-16T03:24:16.849Z,44.18
2018-12-16T03:25:20.589Z,43.08
2018-12-16T03:26:24.364Z,41.02
2018-12-16T03:27:28.881Z,42.05
2018-12-16T03:28:32.654Z,43.48
2018-12-16T03:29:36.358Z,42.93
2018-12-16T03:30:40.135Z,40.63
2018-12-16T03:31:50.226Z,40.33
2018-12-16T03:32:53.992Z,44.23
2018-12-16T03:33:57.775Z,43.35
2018-12-16T03:35:01.500Z,44.18
2018-12-16T03:36:05.318Z,44.45
2018-12-16T03:37:09.121Z,47.25
2018-12-16T03:38:12.887Z,48.05
2018-12-16T03:39:16.695Z,45.15
2018-12-16T03:40:20.528Z,48.10
2018-12-16T03:41:24.242Z,46.68
2018-12-16T03:42:28.009Z,47.27
2018-12-16T03:43:31.737Z,45.23
2018-12-16T03:44:35.612Z,46.53
2018-12-16T03:45:39.399Z,39.50
2018-12-16T03:46:43.229Z,44.40
2018-12-16T03:47:47.039Z,47.50
2018-12-16T03:48:50.937Z,48.33
2018-12-16T03:49:54.772Z,45.05
2018-12-16T03:50:58.508Z,48.92
2018-12-16T03:52:02.199Z,45.20
2018-12-16T03:53:05.873Z,46.08
2018-12-16T03:54:09.606Z,48.68
2018-12-16T03:55:13.391Z,50.05
2018-12-16T03:56:17.109Z,45.90
2018-12-16T03:57:20.818Z,48.98
2018-12-16T03:58:24.664Z,47.10
2018-12-16T03:59:28.371Z,48.78
2018-12-16T04:00:32.194Z,48.00
2018-12-16T04:01:35.934Z,48.92
2018-12-16T04:02:39.673Z,51.13
2018-12-16T04:03:43.423Z,54.58
2018-12-16T04:04:47.150Z,51.15
2018-12-16T04:05:50.964Z,51.48
2018-12-16T04:06:56.713Z,47.88
2018-12-16T04:08:41.942Z,46.88
2018-12-16T04:09:45.725Z,49.03
2018-12-16T04:10:49.531Z,47.27
2018-12-16T04:11:53.316Z,53.78
2018-12-16T04:12:57.115Z,53.80
2018-12-16T04:14:00.834Z,53.02
2018-12-16T04:15:07.058Z,50.75
2018-12-16T04:16:10.852Z,49.15
2018-12-16T04:17:14.673Z,47.13
2018-12-16T04:18:18.406Z,49.40
2018-12-16T04:19:22.179Z,49.80
2018-12-16T04:20:25.914Z,47.90
2018-12-16T04:21:29.635Z,50.40
2018-12-16T04:22:33.370Z,48.65
2018-12-16T04:23:37.106Z,59.55
2018-12-16T04:24:43.091Z,51.08
2018-12-16T04:25:46.823Z,58.48
2018-12-16T04:26:50.651Z,52.03
2018-12-16T04:27:54.270Z,54.13
2018-12-16T04:28:58.142Z,56.13
2018-12-16T04:30:01.896Z,48.23
2018-12-16T04:31:05.728Z,50.67
2018-12-16T04:32:09.481Z,57.15
2018-12-16T04:33:13.218Z,61.53
2018-12-16T04:34:17.157Z,55.45
2018-12-16T04:35:20.952Z,54.10
2018-12-16T04:36:24.709Z,54.73
2018-12-16T04:37:28.515Z,50.40
2018-12-16T04:38:32.250Z,47.17
2018-12-16T04:39:36.239Z,55.05
2018-12-16T04:40:39.940Z,53.15
2018-12-16T04:41:43.775Z,58.08
2018-12-16T04:42:47.549Z,58.52
2018-12-16T04:43:51.358Z,54.98
2018-12-16T04:44:55.130Z,51.80
2018-12-16T04:45:58.874Z,52.05
2018-12-16T04:47:02.596Z,52.38
2018-12-16T04:48:06.456Z,61.98
2018-12-16T04:49:11.254Z,59.65
2018-12-16T04:50:15.326Z,53.15
2018-12-16T04:51:19.103Z,57.95
2018-12-16T04:52:22.881Z,62.60
2018-12-16T04:53:26.620Z,60.80
2018-12-16T04:54:30.628Z,61.53
2018-12-16T04:55:34.374Z,52.90
2018-12-16T04:56:38.133Z,61.68
2018-12-16T04:57:41.919Z,58.23
2018-12-16T04:58:45.647Z,55.25
2018-12-16T04:59:49.501Z,56.35
2018-12-16T05:00:53.309Z,51.85
2018-12-16T05:01:57.111Z,56.23
2018-12-16T05:03:00.697Z,52.65
2018-12-16T05:04:04.455Z,55.12
2018-12-16T05:05:08.325Z,57.48
2018-12-16T05:06:12.130Z,54.55
2018-12-16T05:07:17.103Z,59.38
2018-12-16T05:08:20.799Z,58.75
2018-12-16T05:09:24.524Z,57.23
2018-12-16T05:10:29.863Z,53.28
2018-12-16T05:11:33.615Z,58.30
2018-12-16T05:12:37.301Z,57.73
2018-12-16T05:13:41.101Z,53.68
2018-12-16T05:14:44.838Z,59.20
2018-12-16T05:15:48.596Z,59.05
2018-12-16T05:16:52.358Z,54.35
2018-12-16T05:17:56.098Z,51.53
2018-12-16T05:18:59.806Z,53.20
2018-12-16T05:20:03.918Z,55.40
2018-12-16T05:21:07.719Z,60.03
2018-12-16T05:22:11.505Z,52.73
2018-12-16T05:23:15.218Z,50.17
2018-12-16T05:24:18.942Z,51.88
2018-12-16T05:25:22.686Z,54.27
2018-12-16T05:26:26.501Z,48.83
2018-12-16T05:27:30.315Z,62.98
2018-12-16T05:28:34.031Z,50.23
2018-12-16T05:29:37.754Z,51.85
2018-12-16T05:30:41.602Z,50.83
2018-12-16T05:31:45.343Z,52.50
2018-12-16T05:32:49.103Z,52.90
2018-12-16T05:33:52.965Z,51.10
2018-12-16T05:34:56.763Z,54.42
2018-12-16T05:36:00.853Z,51.98
2018-12-16T05:37:04.591Z,56.65
2018-12-16T05:38:08.480Z,55.20
2018-12-16T05:39:12.347Z,50.98
2018-12-16T05:40:16.115Z,52.00
2018-12-16T05:41:20.087Z,57.15
2018-12-16T05:42:24.359Z,49.42
2018-12-16T05:43:28.641Z,51.37
2018-12-16T05:44:32.757Z,53.85
2018-12-16T05:45:36.485Z,55.10
2018-12-16T05:46:40.269Z,53.60
2018-12-16T05:47:44.080Z,56.10
2018-12-16T05:48:47.933Z,55.33
2018-12-16T05:49:52.048Z,53.78
2018-12-16T05:50:55.787Z,53.58
2018-12-16T05:51:59.555Z,53.08
2018-12-16T05:53:03.256Z,58.70
2018-12-16T05:54:06.969Z,53.75
2018-12-16T05:55:10.758Z,57.73
2018-12-16T05:56:14.519Z,52.45
2018-12-16T05:57:18.218Z,51.23
2018-12-16T05:58:21.996Z,57.00
2018-12-16T05:59:25.717Z,55.25
2018-12-16T06:00:29.580Z,52.25
2018-12-16T06:01:33.354Z,51.83
2018-12-16T06:02:37.098Z,54.80
2018-12-16T06:03:40.843Z,58.30
2018-12-16T06:04:44.717Z,56.18
2018-12-16T06:05:48.550Z,58.25
2018-12-16T06:06:52.280Z,54.60
2018-12-16T06:07:56.035Z,48.68
2018-12-16T06:09:00.114Z,51.85
2018-12-16T06:10:04.089Z,54.23
2018-12-16T06:11:07.806Z,49.15
2018-12-16T06:12:11.565Z,51.53
2018-12-16T06:13:15.343Z,51.08
2018-12-16T06:14:19.189Z,52.55
2018-12-16T06:15:22.910Z,49.53
2018-12-16T06:16:26.657Z,56.50
2018-12-16T06:17:30.399Z,53.48
2018-12-16T06:18:34.197Z,51.83
2018-12-16T06:19:38.008Z,53.80
2018-12-16T06:20:41.746Z,53.08
2018-12-16T06:21:45.599Z,52.23
2018-12-16T06:22:49.325Z,52.80
2018-12-16T06:23:55.706Z,51.80
2018-12-16T06:24:58.956Z,51.70
2018-12-16T06:26:02.712Z,56.58
2018-12-16T06:27:06.498Z,56.42
2018-12-16T06:28:10.210Z,57.40
2018-12-16T06:29:13.894Z,51.65
2018-12-16T06:30:18.602Z,51.53
2018-12-16T06:31:22.355Z,51.73
2018-12-16T06:32:26.010Z,49.35
2018-12-16T06:33:29.829Z,49.25
2018-12-16T06:34:33.632Z,52.20
2018-12-16T06:35:37.466Z,48.40
2018-12-16T06:36:41.190Z,49.63
2018-12-16T06:37:44.979Z,48.85
2018-12-16T06:38:49.052Z,53.85
2018-12-16T06:39:52.807Z,51.18
2018-12-16T06:40:56.500Z,54.53
2018-12-16T06:42:00.226Z,51.28
2018-12-16T06:43:03.933Z,51.25
2018-12-16T06:44:07.775Z,47.88
2018-12-16T06:45:11.580Z,58.48
2018-12-16T06:46:15.381Z,45.70
2018-12-16T06:47:19.148Z,49.15
2018-12-16T06:48:22.934Z,48.25
2018-12-16T06:49:26.724Z,49.23
2018-12-16T06:50:30.592Z,48.78
2018-12-16T06:51:34.371Z,47.58
2018-12-16T06:52:38.130Z,50.50
2018-12-16T06:53:41.839Z,52.43
2018-12-16T06:54:45.592Z,47.93
2018-12-16T06:55:49.590Z,45.15
2018-12-16T06:56:53.277Z,50.78
2018-12-16T06:57:56.914Z,47.90
2018-12-16T06:59:00.647Z,48.33
2018-12-16T07:00:05.191Z,46.20
2018-12-16T07:01:12.221Z,49.10
2018-12-16T07:02:15.993Z,48.60
2018-12-16T07:03:19.766Z,48.78
2018-12-16T07:04:23.475Z,43.33
2018-12-16T07:05:27.238Z,47.20
2018-12-16T07:06:31.013Z,46.65
2018-12-16T07:07:34.733Z,45.15
2018-12-16T07:08:38.470Z,43.80
2018-12-16T07:09:42.269Z,48.30
2018-12-16T07:10:46.075Z,44.38
2018-12-16T07:11:49.811Z,49.67
2018-12-16T07:12:53.555Z,44.98
2018-12-16T07:13:57.325Z,43.52
2018-12-16T07:15:01.100Z,43.90
2018-12-16T07:16:04.862Z,40.70
2018-12-16T07:17:08.562Z,42.83
2018-12-16T07:18:12.385Z,42.25
2018-12-16T07:19:16.135Z,42.50
2018-12-16T07:20:19.938Z,44.83
2018-12-16T07:21:23.750Z,42.75
2018-12-16T07:22:27.585Z,40.25
2018-12-16T07:23:31.612Z,42.53
2018-12-16T07:24:35.357Z,42.33
2018-12-16T07:25:39.114Z,43.20
2018-12-16T07:26:43.156Z,43.80
2018-12-16T07:27:46.932Z,43.15
2018-12-16T07:28:50.685Z,46.42
2018-12-16T07:29:54.436Z,42.67
2018-12-16T07:30:58.189Z,40.48
2018-12-16T07:32:01.892Z,42.93
2018-12-16T07:33:05.694Z,43.02
2018-12-16T07:34:09.550Z,41.33
2018-12-16T07:35:13.478Z,42.20
2018-12-16T07:36:17.224Z,41.25
2018-12-16T07:37:21.115Z,38.65
2018-12-16T07:38:26.007Z,38.67
2018-12-16T07:39:29.779Z,40.03
2018-12-16T07:40:33.637Z,43.30
2018-12-16T07:41:37.427Z,45.85
2018-12-16T07:42:41.203Z,39.83
2018-12-16T07:43:45.034Z,39.50
2018-12-16T07:44:49.012Z,39.18
2018-12-16T07:45:52.752Z,44.50
2018-12-16T07:46:56.518Z,40.95
2018-12-16T07:48:00.333Z,37.40
2018-12-16T07:49:04.093Z,39.78
2018-12-16T07:50:08.712Z,38.90
2018-12-16T07:51:12.513Z,39.33
2018-12-16T07:52:16.306Z,38.05
2018-12-16T07:53:20.110Z,42.80
2018-12-16T07:54:23.818Z,35.73
2018-12-16T07:55:27.580Z,33.88
2018-12-16T07:56:31.318Z,39.55
2018-12-16T07:57:35.107Z,38.60
2018-12-16T07:58:38.897Z,37.17
2018-12-16T07:59:42.659Z,43.78
2018-12-16T08:00:46.407Z,39.27
2018-12-16T08:01:50.453Z,35.28
2018-12-16T08:02:54.220Z,40.08
2018-12-16T08:03:57.890Z,36.75
2018-12-16T08:05:01.567Z,40.45
2018-12-16T08:06:05.347Z,38.67
2018-12-16T08:07:09.147Z,37.35
2018-12-16T08:08:12.920Z,42.58
2018-12-16T08:09:16.783Z,34.78
2018-12-16T08:10:20.534Z,35.30
2018-12-16T08:11:24.408Z,43.20
2018-12-16T08:12:28.235Z,38.30
2018-12-16T08:13:31.968Z,41.48
2018-12-16T08:14:35.858Z,39.78
2018-12-16T08:15:39.600Z,40.00
2018-12-16T08:16:43.404Z,35.17
2018-12-16T08:17:47.096Z,38.08
2018-12-16T08:18:50.874Z,38.08
2018-12-16T08:19:54.599Z,38.20
2018-12-16T08:20:58.317Z,35.70
2018-12-16T08:22:08.457Z,46.70
2018-12-16T08:23:12.208Z,38.65
2018-12-16T08:24:22.939Z,41.60
2018-12-16T08:25:21.792Z,39.00
2018-12-16T08:26:25.542Z,39.27
2018-12-16T08:27:29.294Z,35.70
2018-12-16T08:28:33.103Z,35.30
2018-12-16T08:29:36.858Z,35.33
2018-12-16T08:30:40.637Z,33.08
2018-12-16T08:31:44.521Z,29.75
2018-12-16T08:32:48.338Z,35.80
2018-12-16T08:33:52.122Z,37.60
2018-12-16T08:34:55.839Z,34.43
2018-12-16T08:35:59.597Z,36.80
2018-12-16T08:37:03.455Z,40.38
2018-12-16T08:38:07.215Z,36.95
2018-12-16T08:39:11.260Z,37.20
2018-12-16T08:40:14.972Z,41.13
2018-12-16T08:41:18.777Z,37.70
2018-12-16T08:42:22.523Z,47.27
2018-12-16T08:43:26.177Z,39.88
2018-12-16T08:44:29.966Z,35.58
2018-12-16T08:45:33.818Z,87.90
2018-12-16T08:46:37.578Z,53.87
2018-12-16T08:47:41.333Z,36.33
2018-12-16T08:48:45.079Z,37.30
2018-12-16T08:49:48.834Z,36.48
2018-12-16T08:50:52.578Z,33.10
2018-12-16T08:51:56.291Z,39.53
2018-12-16T08:53:00.002Z,40.38
2018-12-16T08:54:03.773Z,30.52
2018-12-16T08:55:07.601Z,32.73
2018-12-16T08:56:12.398Z,54.40
2018-12-16T08:57:16.183Z,35.80
2018-12-16T08:58:19.988Z,35.85
2018-12-16T08:59:23.759Z,37.10
2018-12-16T09:00:27.628Z,36.88
2018-12-16T09:01:32.024Z,31.87
2018-12-16T09:02:35.859Z,32.85
2018-12-16T09:03:42.506Z,29.98
2018-12-16T09:04:46.247Z,34.30
2018-12-16T09:05:50.388Z,31.37
2018-12-16T09:06:54.370Z,36.68
2018-12-16T09:07:58.387Z,39.48
2018-12-16T09:09:02.367Z,30.68
2018-12-16T09:10:08.997Z,31.50
2018-12-16T09:11:12.711Z,29.55
2018-12-16T09:12:16.519Z,31.23
2018-12-16T09:13:20.421Z,32.93
2018-12-16T09:14:24.246Z,32.23
2018-12-16T09:15:27.982Z,33.73
2018-12-16T09:16:32.006Z,28.52
2018-12-16T09:17:35.794Z,32.55
2018-12-16T09:18:39.562Z,31.70
2018-12-16T09:19:43.356Z,35.88
2018-12-16T09:20:47.204Z,28.65
2018-12-16T09:21:51.175Z,30.57
2018-12-16T09:22:54.887Z,38.25
2018-12-16T09:23:58.725Z,31.00
2018-12-16T09:25:02.526Z,29.82
2018-12-16T09:26:06.530Z,33.02
2018-12-16T09:27:10.293Z,31.10
2018-12-16T09:28:14.034Z,31.82
2018-12-16T09:29:19.387Z,32.65
2018-12-16T09:30:23.344Z,32.88
2018-12-16T09:31:27.620Z,36.83
2018-12-16T09:32:31.401Z,26.75
2018-12-16T09:33:35.166Z,27.60
2018-12-16T09:34:38.997Z,31.90
2018-12-16T09:35:42.793Z,30.95
2018-12-16T09:36:46.583Z,32.20
2018-12-16T09:37:50.335Z,29.57
2018-12-16T09:38:54.151Z,28.10
2018-12-16T09:39:57.936Z,26.50
2018-12-16T09:41:01.723Z,29.35
2018-12-16T09:42:05.483Z,29.55
2018-12-16T09:43:09.231Z,27.48
2018-12-16T09:44:13.002Z,25.75
2018-12-16T09:45:16.795Z,25.57
2018-12-16T09:46:20.556Z,27.93
2018-12-16T09:47:24.466Z,33.60
2018-12-16T09:48:28.280Z,34.05
2018-12-16T09:49:32.080Z,29.67
2018-12-16T09:50:35.956Z,28.12
2018-12-16T09:51:39.726Z,41.40
2018-12-16T09:52:43.688Z,32.28
2018-12-16T09:53:47.512Z,33.83
2018-12-16T09:54:51.353Z,53.98
2018-12-16T09:55:55.133Z,33.28
2018-12-16T09:56:58.895Z,32.35
2018-12-16T09:58:02.655Z,32.33
2018-12-16T09:59:06.427Z,28.17
2018-12-16T10:00:11.152Z,42.00
2018-12-16T10:01:14.846Z,34.40
2018-12-16T10:02:18.583Z,28.62
2018-12-16T10:03:22.426Z,33.13
2018-12-16T10:04:26.151Z,34.88
2018-12-16T10:05:29.890Z,31.12
2018-12-16T10:06:33.682Z,34.13
2018-12-16T10:07:37.365Z,32.33
2018-12-16T10:08:41.140Z,28.87
2018-12-16T10:09:44.889Z,29.80
2018-12-16T10:10:48.694Z,34.45
2018-12-16T10:11:59.211Z,33.42
2018-12-16T10:13:02.927Z,34.53
2018-12-16T10:14:06.733Z,31.97
2018-12-16T10:15:10.437Z,34.70
2018-12-16T10:16:14.204Z,29.25
2018-12-16T10:17:17.901Z,27.42
2018-12-16T10:18:21.639Z,29.80
2018-12-16T10:19:25.396Z,28.45
2018-12-16T10:20:29.177Z,26.23
2018-12-16T10:21:33.125Z,29.65
2018-12-16T10:22:36.715Z,29.15
2018-12-16T10:23:40.488Z,26.68
2018-12-16T10:24:51.042Z,26.87
2018-12-16T10:25:50.123Z,26.87
2018-12-16T10:26:54.018Z,24.90
2018-12-16T10:27:57.721Z,38.92
2018-12-16T10:29:01.473Z,27.37
2018-12-16T10:30:07.008Z,26.50
2018-12-16T10:31:10.755Z,31.37
2018-12-16T10:32:14.515Z,33.38
2018-12-16T10:33:19.370Z,26.65
2018-12-16T10:34:23.095Z,30.30
2018-12-16T10:35:26.885Z,35.17
2018-12-16T10:36:30.618Z,29.72
2018-12-16T10:37:34.319Z,29.45
2018-12-16T10:38:38.054Z,28.10
2018-12-16T10:39:42.527Z,33.40
2018-12-16T10:40:46.413Z,34.58
2018-12-16T10:41:50.210Z,31.57
2018-12-16T10:42:53.931Z,32.35
2018-12-16T10:43:57.754Z,24.20
2018-12-16T10:45:01.542Z,27.15
2018-12-16T10:46:05.358Z,24.23
2018-12-16T10:47:09.177Z,29.25
2018-12-16T10:48:13.349Z,33.45
2018-12-16T10:49:17.280Z,34.63
2018-12-16T10:50:21.108Z,28.52
2018-12-16T10:51:24.887Z,24.85
2018-12-16T10:52:28.647Z,28.87
2018-12-16T10:53:33.627Z,27.87
2018-12-16T10:54:38.481Z,26.55
2018-12-16T10:55:42.318Z,26.17
2018-12-16T10:56:46.108Z,24.10
2018-12-16T10:57:50.109Z,35.00
2018-12-16T10:58:53.989Z,25.85
2018-12-16T10:59:57.824Z,30.80
2018-12-16T11:01:07.104Z,32.53
2018-12-16T11:02:10.905Z,31.77
2018-12-16T11:03:15.561Z,22.70
2018-12-16T11:04:19.413Z,23.07
2018-12-16T11:05:23.883Z,27.52
2018-12-16T11:06:27.609Z,28.23
2018-12-16T11:07:31.375Z,35.70
2018-12-16T11:08:36.872Z,22.27
2018-12-16T11:09:40.694Z,23.32
2018-12-16T11:10:44.513Z,24.75
2018-12-16T11:11:48.346Z,23.27
2018-12-16T11:12:52.275Z,23.07
2018-12-16T11:13:56.072Z,27.20
2018-12-16T11:14:59.963Z,25.35
2018-12-16T11:16:03.775Z,23.62
2018-12-16T11:17:07.528Z,22.87
2018-12-16T11:18:11.281Z,22.98
2018-12-16T11:19:15.017Z,24.63
2018-12-16T11:20:19.185Z,23.12
2018-12-16T11:21:23.199Z,21.95
2018-12-16T11:22:26.910Z,26.15
2018-12-16T11:23:30.675Z,25.40
2018-12-16T11:24:42.729Z,23.67
2018-12-16T11:25:49.577Z,20.68
2018-12-16T11:26:53.343Z,23.50
2018-12-16T11:27:57.241Z,27.73
2018-12-16T11:29:00.949Z,24.07
2018-12-16T11:30:05.503Z,23.10
2018-12-16T11:31:09.275Z,23.20
2018-12-16T11:32:13.086Z,26.33
2018-12-16T11:33:17.785Z,28.47
2018-12-16T11:34:21.618Z,19.70
2018-12-16T11:35:25.538Z,22.75
2018-12-16T11:36:29.329Z,21.15
2018-12-16T11:37:34.210Z,25.20
2018-12-16T11:38:38.050Z,22.40
2018-12-16T11:39:42.131Z,20.30
2018-12-16T11:40:45.906Z,21.17
2018-12-16T11:41:49.912Z,35.55
2018-12-16T11:42:53.668Z,21.33
2018-12-16T11:43:57.579Z,26.97
2018-12-16T11:45:01.921Z,25.25
2018-12-16T11:46:05.685Z,23.10
2018-12-16T11:47:09.503Z,19.10
2018-12-16T11:48:13.294Z,22.75
2018-12-16T11:49:17.018Z,25.00
2018-12-16T11:50:20.813Z,21.55
2018-12-16T11:51:25.617Z,22.02
2018-12-16T11:52:30.551Z,23.77
2018-12-16T11:53:34.915Z,24.80
2018-12-16T11:54:38.767Z,24.57
2018-12-16T11:55:42.583Z,23.70
2018-12-16T11:56:46.377Z,24.85
2018-12-16T11:57:50.115Z,26.50
2018-12-16T11:58:53.995Z,21.37
2018-12-16T11:59:57.810Z,25.02
2018-12-16T12:01:01.768Z,28.38
2018-12-16T12:02:06.714Z,25.95
2018-12-16T12:03:12.391Z,21.30
2018-12-16T12:04:18.009Z,22.82
2018-12-16T12:05:21.820Z,26.02
2018-12-16T12:06:26.296Z,24.77
2018-12-16T12:07:30.143Z,27.98
2018-12-16T12:08:33.930Z,32.55
2018-12-16T12:09:38.031Z,31.33
2018-12-16T12:10:41.871Z,24.65
2018-12-16T12:11:45.652Z,23.55
2018-12-16T12:12:49.435Z,23.70
2018-12-16T12:13:53.230Z,23.10
2018-12-16T12:14:57.145Z,21.93
2018-12-16T12:16:00.938Z,24.43
2018-12-16T12:17:04.797Z,23.87
2018-12-16T12:18:08.593Z,23.65
2018-12-16T12:19:12.716Z,22.73
2018-12-16T12:20:16.558Z,26.17
2018-12-16T12:21:20.341Z,26.75
2018-12-16T12:22:24.185Z,23.90
2018-12-16T12:23:28.030Z,28.12
2018-12-16T12:24:31.775Z,22.30
2018-12-16T12:25:36.466Z,26.10
2018-12-16T12:26:40.315Z,24.10
2018-12-16T12:27:44.254Z,29.52
2018-12-16T12:28:48.003Z,23.57
2018-12-16T12:29:51.837Z,25.48
2018-12-16T12:30:56.027Z,23.47
2018-12-16T12:31:59.797Z,27.40
2018-12-16T12:33:03.576Z,29.45
2018-12-16T12:34:07.358Z,23.27
2018-12-16T12:35:11.122Z,23.27
2018-12-16T12:36:14.962Z,24.37
2018-12-16T12:37:18.630Z,25.00
2018-12-16T12:38:22.455Z,25.72
2018-12-16T12:39:26.148Z,23.52
2018-12-16T12:40:29.916Z,27.77
2018-12-16T12:41:33.682Z,25.57
2018-12-16T12:42:37.549Z,22.45
2018-12-16T12:43:41.515Z,23.87
2018-12-16T12:44:45.278Z,26.85
2018-12-16T12:45:49.069Z,24.82
2018-12-16T12:46:52.891Z,25.97
2018-12-16T12:47:57.218Z,28.40
2018-12-16T12:49:00.966Z,26.65
2018-12-16T12:50:05.727Z,28.02
2018-12-16T12:51:09.555Z,24.07
2018-12-16T12:52:13.356Z,25.62
2018-12-16T12:53:17.248Z,24.65
2018-12-16T12:54:21.361Z,24.12
2018-12-16T12:55:26.938Z,20.35
2018-12-16T12:56:31.144Z,23.65
2018-12-16T12:57:34.925Z,27.32
2018-12-16T12:58:38.675Z,23.67
2018-12-16T12:59:42.556Z,24.95
2018-12-16T13:00:47.022Z,24.18
2018-12-16T13:01:50.928Z,27.05
2018-12-16T13:02:54.727Z,24.63
2018-12-16T13:03:58.476Z,25.00
2018-12-16T13:05:02.277Z,22.55
2018-12-16T13:06:06.063Z,25.37
2018-12-16T13:07:09.832Z,21.55
2018-12-16T13:08:13.641Z,24.00
2018-12-16T13:09:17.775Z,28.87
2018-12-16T13:10:21.578Z,27.10
2018-12-16T13:11:25.353Z,21.80
2018-12-16T13:12:29.124Z,22.75
2018-12-16T13:13:32.890Z,23.92
2018-12-16T13:14:36.717Z,24.72
2018-12-16T13:15:40.613Z,22.45
2018-12-16T13:16:44.447Z,22.48
2018-12-16T13:17:48.251Z,27.05
2018-12-16T13:18:52.028Z,25.30
2018-12-16T13:19:55.859Z,21.80
2018-12-16T13:20:59.612Z,23.07
2018-12-16T13:22:03.421Z,24.75
2018-12-16T13:23:07.826Z,24.80
2018-12-16T13:24:11.647Z,21.05
2018-12-16T13:25:33.604Z,22.02
2018-12-16T13:26:32.629Z,21.82
2018-12-16T13:27:36.392Z,25.25
2018-12-16T13:28:40.123Z,26.20
2018-12-16T13:29:43.994Z,24.55
2018-12-16T13:30:47.730Z,17.60
2018-12-16T13:31:51.594Z,21.23
2018-12-16T13:32:55.321Z,23.45
2018-12-16T13:33:59.038Z,19.57
2018-12-16T13:35:02.912Z,24.77
2018-12-16T13:36:09.715Z,21.37
2018-12-16T13:37:13.460Z,24.60
2018-12-16T13:38:17.212Z,24.15
2018-12-16T13:39:21.049Z,22.25
2018-12-16T13:40:24.845Z,23.83
2018-12-16T13:41:28.675Z,23.70
2018-12-16T13:42:32.533Z,22.87
2018-12-16T13:43:36.498Z,23.32
2018-12-16T13:44:40.275Z,22.50